Time;durP1;ratioP1;P1;durP2;ratioP2;P2;SDS_P1;SDS_P2;PMS_P1;PMS_P2;Temp;Humidity;BMP_temperature;BMP_pressure;BME280_temperature;BME280_humidity;BME280_pressure;Samples;Min_cycle;Max_cycle;Signal;HPM_P1;HPM_P2
2023/01/15 00:00:29;;;;;;;;;1.00;1.00;;;;;20.11;59.10;99627.97;110266;1263;19573;-80
2023/01/15 00:03:16;;;;;;;;;2.00;2.00;;;;;20.12;59.02;99618.98;110589;1259;21786;-80
2023/01/15 00:05:44;;;;;;;;;2.00;1.00;;;;;20.12;58.80;99617.39;110603;1251;20272;-79
2023/01/15 00:08:11;;;;;;;;;1.00;1.00;;;;;20.12;58.86;99620.66;110654;1259;21067;-80
2023/01/15 00:10:39;;;;;;;;;1.50;1.00;;;;;20.12;58.76;99604.09;110592;1265;18386;-79
2023/01/15 00:13:06;;;;;;;;;2.00;2.00;;;;;20.12;58.82;99601.02;110607;1265;19772;-79
2023/01/15 00:15:34;;;;;;;;;2.00;2.00;;;;;20.12;58.93;99602.15;110574;1265;19501;-79
2023/01/15 00:18:02;;;;;;;;;1.00;1.00;;;;;20.12;58.99;99607.01;110606;1265;18380;-79
2023/01/15 00:20:29;;;;;;;;;1.00;1.00;;;;;20.12;58.80;99597.77;110682;1250;18481;-80
2023/01/15 00:22:57;;;;;;;;;2.50;2.50;;;;;20.11;58.82;99580.10;110637;1265;20733;-79
2023/01/15 00:28:10;;;;;;;;;1.00;1.00;;;;;20.11;58.73;99565.77;110547;1265;18900;-79
2023/01/15 00:30:37;;;;;;;;;1.00;1.00;;;;;20.10;58.85;99551.41;110565;1265;19712;-79
2023/01/15 00:33:04;;;;;;;;;2.00;2.00;;;;;20.09;58.53;99548.43;110548;1265;19864;-79
2023/01/15 00:35:32;;;;;;;;;1.00;1.00;;;;;20.10;58.73;99538.57;110630;1265;20028;-79
2023/01/15 00:38:00;;;;;;;;;1.00;1.00;;;;;20.10;58.78;99541.96;110664;1250;22129;-80
2023/01/15 00:40:27;;;;;;;;;2.00;2.00;;;;;20.11;58.89;99550.81;110599;1265;18413;-80
2023/01/15 00:42:55;;;;;;;;;1.00;1.00;;;;;20.10;58.72;99560.50;110582;1250;20568;-79
2023/01/15 00:45:22;;;;;;;;;2.00;2.00;;;;;20.09;58.71;99575.27;110605;1250;22447;-80
2023/01/15 00:47:50;;;;;;;;;2.00;2.00;;;;;20.09;58.86;99574.55;110610;1259;18460;-80
2023/01/15 00:50:26;;;;;;;;;1.00;1.00;;;;;20.09;58.69;99577.85;110680;1265;18679;-80
2023/01/15 00:52:54;;;;;;;;;2.00;2.00;;;;;20.09;58.85;99578.77;110639;1252;21968;-80
2023/01/15 00:55:21;;;;;;;;;1.00;1.00;;;;;20.09;58.89;99575.98;110661;1250;28434;-79
2023/01/15 00:57:49;;;;;;;;;1.00;1.00;;;;;20.09;58.70;99576.35;110651;1257;22355;-80
2023/01/15 01:00:16;;;;;;;;;1.00;1.00;;;;;20.10;58.56;99576.07;110583;1251;22594;-80
2023/01/15 01:02:44;;;;;;;;;1.00;1.00;;;;;20.10;58.87;99572.77;110598;1250;20231;-80
2023/01/15 01:05:11;;;;;;;;;3.00;3.00;;;;;20.09;58.76;99561.86;110646;1264;19969;-80
2023/01/15 01:07:39;;;;;;;;;1.00;1.00;;;;;20.08;58.56;99553.08;110506;1265;19490;-80
2023/01/15 01:10:07;;;;;;;;;1.00;1.00;;;;;20.09;58.53;99553.79;110575;1252;23105;-79
2023/01/15 01:12:36;;;;;;;;;1.00;1.00;;;;;20.08;58.57;99541.15;110495;1265;18645;-79
2023/01/15 01:15:03;;;;;;;;;1.00;1.00;;;;;20.09;58.71;99515.61;110577;1249;19857;-80
2023/01/15 01:17:31;;;;;;;;;1.00;1.00;;;;;20.08;58.62;99506.67;110637;1250;22830;-79
2023/01/15 01:19:58;;;;;;;;;1.00;1.00;;;;;20.09;58.72;99515.88;110676;1265;20364;-80
2023/01/15 01:22:26;;;;;;;;;1.00;1.00;;;;;20.08;58.53;99501.77;110591;1250;21112;-80
2023/01/15 01:24:54;;;;;;;;;1.00;1.00;;;;;20.08;58.75;99501.10;110567;1265;18496;-79
2023/01/15 01:27:21;;;;;;;;;1.00;1.00;;;;;20.07;58.51;99495.75;110648;1265;18879;-80
2023/01/15 01:29:49;;;;;;;;;1.00;1.00;;;;;20.08;58.68;99498.22;110611;1250;19360;-80
2023/01/15 01:32:16;;;;;;;;;1.00;1.00;;;;;20.08;58.46;99477.92;110605;1257;18397;-80
2023/01/15 01:34:43;;;;;;;;;1.00;1.00;;;;;20.07;58.63;99468.46;110583;1260;18660;-79
2023/01/15 01:37:11;;;;;;;;;1.00;1.00;;;;;20.07;58.59;99474.54;110548;1260;19567;-79
2023/01/15 01:39:38;;;;;;;;;1.00;1.00;;;;;20.07;58.55;99479.27;110627;1265;19657;-80
2023/01/15 01:42:06;;;;;;;;;1.00;1.00;;;;;20.07;58.60;99502.82;110673;1265;18796;-79
2023/01/15 01:44:33;;;;;;;;;1.00;1.00;;;;;20.08;58.42;99506.42;110656;1250;19753;-79
2023/01/15 01:47:01;;;;;;;;;1.00;1.00;;;;;20.07;58.78;99497.20;110681;1265;18632;-79
2023/01/15 01:49:28;;;;;;;;;1.00;1.00;;;;;20.06;58.45;99490.31;110606;1250;18937;-79
2023/01/15 01:51:56;;;;;;;;;1.00;1.00;;;;;20.05;58.57;99483.31;110595;1265;19524;-79
2023/01/15 01:54:23;;;;;;;;;1.00;1.00;;;;;20.06;58.61;99473.40;110610;1265;19595;-79
2023/01/15 01:56:51;;;;;;;;;1.00;1.00;;;;;20.05;58.62;99469.63;110591;1251;18591;-79
2023/01/15 01:59:18;;;;;;;;;1.00;1.00;;;;;20.06;58.47;99462.78;110630;1250;19844;-80
2023/01/15 02:01:46;;;;;;;;;1.00;1.00;;;;;20.05;58.67;99461.94;110504;1265;18433;-79
2023/01/15 02:04:13;;;;;;;;;1.50;1.50;;;;;20.06;58.50;99464.44;110443;1265;19006;-80
2023/01/15 02:06:41;;;;;;;;;1.00;1.00;;;;;20.05;58.53;99465.59;110715;1265;19351;-79
2023/01/15 02:09:08;;;;;;;;;2.50;2.50;;;;;20.06;58.38;99475.48;110626;1265;22015;-79
2023/01/15 02:11:36;;;;;;;;;1.00;1.00;;;;;20.06;58.54;99470.93;110689;1265;20018;-80
2023/01/15 02:14:05;;;;;;;;;1.00;1.00;;;;;20.05;58.41;99463.61;110667;1265;19380;-79
2023/01/15 02:16:32;;;;;;;;;1.00;1.00;;;;;20.04;58.66;99443.47;110636;1250;19609;-79
2023/01/15 02:19:00;;;;;;;;;1.00;1.00;;;;;20.04;58.36;99434.48;110646;1257;21588;-79
2023/01/15 02:21:27;;;;;;;;;1.00;1.00;;;;;20.05;58.54;99432.98;110650;1251;21103;-79
2023/01/15 02:23:55;;;;;;;;;1.00;1.00;;;;;20.05;58.63;99426.48;110508;1257;18977;-79
2023/01/15 02:26:22;;;;;;;;;1.00;1.00;;;;;20.03;58.34;99424.13;110717;1250;20306;-79
2023/01/15 02:28:50;;;;;;;;;1.00;1.00;;;;;20.03;58.41;99415.10;110528;1250;21203;-79
2023/01/15 02:31:17;;;;;;;;;3.00;3.00;;;;;20.03;58.55;99425.55;110555;1253;28800;-79
2023/01/15 02:33:44;;;;;;;;;1.00;1.00;;;;;20.03;58.36;99421.36;110455;1265;18686;-79
2023/01/15 02:36:12;;;;;;;;;1.00;1.00;;;;;20.05;58.44;99424.82;110445;1250;19353;-80
2023/01/15 02:38:39;;;;;;;;;1.00;1.00;;;;;20.04;58.38;99409.84;110662;1261;18642;-80
2023/01/15 02:41:07;;;;;;;;;1.50;1.00;;;;;20.04;58.46;99400.99;110668;1250;18755;-79
2023/01/15 02:43:34;;;;;;;;;1.00;1.00;;;;;20.04;58.50;99397.14;110635;1250;20854;-79
2023/01/15 02:46:02;;;;;;;;;1.00;1.00;;;;;20.04;58.55;99396.06;110498;1250;20768;-79
2023/01/15 02:48:29;;;;;;;;;1.00;1.00;;;;;20.05;58.35;99386.20;110615;1250;25128;-79
2023/01/15 02:50:57;;;;;;;;;1.00;1.00;;;;;20.05;58.26;99386.56;110472;1252;20889;-79
2023/01/15 02:53:24;;;;;;;;;1.00;1.00;;;;;20.05;58.33;99385.30;110654;1265;18530;-80
2023/01/15 02:55:52;;;;;;;;;1.00;1.00;;;;;20.04;58.28;99369.08;110602;1257;18724;-79
2023/01/15 02:58:19;;;;;;;;;1.00;1.00;;;;;20.04;58.26;99368.36;110579;1259;19603;-79
2023/01/15 03:00:47;;;;;;;;;2.00;2.00;;;;;20.02;58.36;99354.05;110633;1251;19978;-80
2023/01/15 03:03:14;;;;;;;;;1.00;1.00;;;;;20.02;58.17;99342.08;110555;1265;18682;-80
2023/01/15 03:05:42;;;;;;;;;1.00;1.00;;;;;20.03;58.19;99349.27;110587;1249;20962;-80
2023/01/15 03:08:09;;;;;;;;;1.00;1.00;;;;;20.02;58.38;99350.11;110690;1265;18524;-79
2023/01/15 03:10:37;;;;;;;;;1.00;1.00;;;;;20.02;58.20;99339.95;110580;1251;18760;-79
2023/01/15 03:13:06;;;;;;;;;1.00;1.00;;;;;20.02;58.17;99341.25;110642;1265;19672;-79
2023/01/15 03:18:18;;;;;;;;;1.00;1.00;;;;;20.00;58.27;99345.55;110611;1265;19954;-79
2023/01/15 03:20:46;;;;;;;;;1.00;1.00;;;;;20.01;58.39;99348.94;110583;1257;19753;-80
2023/01/15 03:23:13;;;;;;;;;1.00;1.00;;;;;20.01;58.24;99339.82;110662;1250;21034;-80
2023/01/15 03:25:41;;;;;;;;;1.00;1.00;;;;;20.03;58.14;99334.96;110590;1251;20062;-79
2023/01/15 03:28:09;;;;;;;;;1.00;1.00;;;;;20.01;58.25;99323.76;110617;1250;21305;-79
2023/01/15 03:30:36;;;;;;;;;1.00;1.00;;;;;20.01;58.22;99324.47;110601;1251;19606;-80
2023/01/15 03:33:04;;;;;;;;;1.00;1.00;;;;;20.02;58.23;99317.48;110580;1265;18971;-79
2023/01/15 03:35:31;;;;;;;;;1.00;1.00;;;;;20.02;58.29;99314.21;110644;1265;21097;-80
2023/01/15 03:37:58;;;;;;;;;1.00;1.00;;;;;20.01;58.05;99308.65;110441;1253;21566;-80
2023/01/15 03:40:26;;;;;;;;;1.00;1.00;;;;;20.01;58.32;99311.63;110630;1265;18990;-79
2023/01/15 03:43:39;;;;;;;;;1.00;1.00;;;;;20.00;58.22;99304.27;110636;1250;19724;-80
2023/01/15 03:45:42;;;;;;;;;1.00;1.00;;;;;20.00;58.29;99311.33;110594;1265;18419;-80
2023/01/15 03:48:09;;;;;;;;;1.00;1.00;;;;;20.01;58.19;99309.99;110603;1266;18939;-80
2023/01/15 03:50:37;;;;;;;;;1.00;1.00;;;;;20.00;58.06;99306.86;110628;1250;22795;-79
2023/01/15 03:53:04;;;;;;;;;1.00;1.00;;;;;20.02;58.38;99315.81;110660;1257;21977;-80
2023/01/15 03:55:31;;;;;;;;;1.00;1.00;;;;;20.01;58.08;99318.61;110561;1266;21935;-79
2023/01/15 03:57:59;;;;;;;;;1.00;1.00;;;;;20.01;58.24;99317.45;110589;1250;22827;-79
2023/01/15 04:00:26;;;;;;;;;2.00;2.00;;;;;20.01;57.89;99318.33;110520;1250;27622;-80
2023/01/15 04:02:54;;;;;;;;;1.00;1.00;;;;;20.00;58.13;99315.10;110500;1258;23353;-80
2023/01/15 04:05:21;;;;;;;;;1.00;1.00;;;;;20.01;58.06;99325.73;110688;1265;19389;-79
2023/01/15 04:07:49;;;;;;;;;1.00;1.00;;;;;20.01;57.98;99313.42;110476;1266;18572;-80
2023/01/15 04:10:16;;;;;;;;;1.00;1.00;;;;;20.01;58.07;99296.57;110532;1257;18802;-80
2023/01/15 04:12:44;;;;;;;;;1.00;1.00;;;;;20.00;58.25;99285.06;110615;1265;22089;-80
2023/01/15 04:15:11;;;;;;;;;1.00;1.00;;;;;20.00;58.06;99275.89;110424;1266;18839;-79
2023/01/15 04:17:39;;;;;;;;;2.00;1.00;;;;;19.99;58.15;99281.41;110693;1251;20157;-79
2023/01/15 04:20:06;;;;;;;;;1.00;1.00;;;;;20.00;58.24;99290.50;110585;1258;19536;-80
2023/01/15 04:22:34;;;;;;;;;1.00;1.00;;;;;20.00;57.96;99286.52;110639;1259;18525;-80
2023/01/15 04:25:02;;;;;;;;;1.00;1.00;;;;;19.99;58.09;99282.47;110608;1265;27653;-80
2023/01/15 04:27:30;;;;;;;;;1.00;1.00;;;;;19.99;58.01;99279.80;110558;1251;21493;-80
2023/01/15 04:29:57;;;;;;;;;1.00;1.00;;;;;20.00;58.19;99280.25;110603;1265;18450;-80
2023/01/15 04:32:25;;;;;;;;;1.00;1.00;;;;;19.98;58.01;99271.88;110636;1265;18831;-79
2023/01/15 04:34:53;;;;;;;;;1.00;1.00;;;;;19.99;58.14;99274.23;110611;1251;19389;-80
2023/01/15 04:37:20;;;;;;;;;1.00;1.00;;;;;19.99;58.19;99261.80;110570;1257;19323;-80
2023/01/15 04:39:47;;;;;;;;;1.00;1.00;;;;;19.99;58.02;99259.79;110502;1251;18977;-79
2023/01/15 04:45:00;;;;;;;;;1.00;1.00;;;;;19.98;58.13;99249.45;110454;1266;18429;-80
2023/01/15 04:47:28;;;;;;;;;1.00;1.00;;;;;19.99;57.98;99249.20;110646;1250;18864;-80
2023/01/15 04:49:55;;;;;;;;;1.00;1.00;;;;;19.98;58.04;99245.27;110600;1265;20824;-79
2023/01/15 04:52:23;;;;;;;;;1.00;1.00;;;;;19.99;58.09;99234.64;110621;1250;18738;-79
2023/01/15 04:54:50;;;;;;;;;1.00;1.00;;;;;19.98;58.04;99232.88;110632;1265;18634;-79
2023/01/15 04:57:18;;;;;;;;;1.00;1.00;;;;;19.98;58.07;99228.91;110558;1250;19617;-79
2023/01/15 04:59:45;;;;;;;;;1.00;1.00;;;;;19.99;57.93;99224.06;110564;1265;23566;-80
2023/01/15 05:02:13;;;;;;;;;1.00;1.00;;;;;19.99;58.12;99223.56;110697;1265;18651;-80
2023/01/15 05:04:40;;;;;;;;;1.00;1.00;;;;;19.98;57.92;99224.06;110597;1265;19338;-80
2023/01/15 05:07:08;;;;;;;;;1.00;1.00;;;;;19.98;58.15;99218.79;110606;1265;19538;-79
2023/01/15 05:09:35;;;;;;;;;1.00;1.00;;;;;19.99;58.13;99217.83;110682;1265;18639;-80
2023/01/15 05:12:02;;;;;;;;;1.00;1.00;;;;;20.00;58.06;99207.91;110613;1265;19453;-79
2023/01/15 05:14:30;;;;;;;;;1.00;1.00;;;;;19.99;57.94;99200.97;110707;1257;20122;-79
2023/01/15 05:16:59;;;;;;;;;1.00;1.00;;;;;19.99;58.05;99199.88;110664;1250;21412;-79
2023/01/15 05:19:27;;;;;;;;;1.00;1.00;;;;;19.99;58.09;99199.24;110606;1265;19581;-80
2023/01/15 05:21:54;;;;;;;;;1.00;1.00;;;;;19.98;57.88;99198.46;110587;1265;18619;-79
2023/01/15 05:24:22;;;;;;;;;1.00;1.00;;;;;19.98;58.02;99200.67;110579;1250;19664;-80
2023/01/15 05:26:49;;;;;;;;;1.00;1.00;;;;;19.97;58.04;99202.09;110596;1258;19789;-80
2023/01/15 05:29:16;;;;;;;;;1.00;1.00;;;;;19.98;58.18;99196.15;110641;1250;20708;-79
2023/01/15 05:31:45;;;;;;;;;1.00;1.00;;;;;19.97;58.09;99177.73;110591;1265;18631;-79
2023/01/15 05:34:13;;;;;;;;;1.00;1.00;;;;;19.97;58.06;99180.33;110574;1257;21627;-79
2023/01/15 05:36:40;;;;;;;;;1.00;1.00;;;;;19.97;58.09;99182.30;110630;1265;21633;-80
2023/01/15 05:39:08;;;;;;;;;1.00;1.00;;;;;19.97;57.89;99175.60;110575;1254;19155;-80
2023/01/15 05:41:51;;;;;;;;;1.00;1.00;;;;;19.97;58.02;99172.33;110656;1249;22250;-79
2023/01/15 05:44:19;;;;;;;;;1.00;1.00;;;;;19.97;57.91;99172.42;110664;1265;18912;-79
2023/01/15 05:46:46;;;;;;;;;1.00;1.00;;;;;19.96;57.92;99171.38;110569;1265;18903;-80
2023/01/15 05:49:14;;;;;;;;;1.00;1.00;;;;;19.96;58.07;99175.52;110605;1257;20884;-80
2023/01/15 05:51:41;;;;;;;;;1.00;1.00;;;;;19.97;57.83;99176.35;110622;1250;18378;-79
2023/01/15 05:54:09;;;;;;;;;1.00;1.00;;;;;19.98;57.93;99172.05;110466;1265;235150;-79
2023/01/15 05:56:36;;;;;;;;;1.00;1.00;;;;;19.97;58.15;99173.59;110451;1253;20134;-79
2023/01/15 05:59:04;;;;;;;;;1.00;1.00;;;;;19.97;58.12;99166.19;110515;1250;19810;-79
2023/01/15 06:01:31;;;;;;;;;1.00;1.00;;;;;19.97;57.97;99163.77;110560;1261;18680;-79
2023/01/15 06:03:58;;;;;;;;;1.00;1.00;;;;;19.98;57.86;99161.71;110590;1265;19302;-80
2023/01/15 06:06:26;;;;;;;;;1.00;1.00;;;;;19.99;58.01;99163.98;110563;1251;19485;-79
2023/01/15 06:08:53;;;;;;;;;1.00;1.00;;;;;19.99;57.89;99161.81;110543;1250;22098;-79
2023/01/15 06:11:21;;;;;;;;;1.00;1.00;;;;;19.98;58.07;99161.18;110631;1265;19518;-79
2023/01/15 06:13:49;;;;;;;;;1.00;1.00;;;;;19.97;58.15;99164.18;110611;1265;18871;-79
2023/01/15 06:16:17;;;;;;;;;1.00;1.00;;;;;19.97;57.90;99161.13;110577;1265;22930;-80
2023/01/15 06:18:44;;;;;;;;;1.00;1.00;;;;;19.97;58.05;99163.81;110584;1265;19529;-79
2023/01/15 06:21:12;;;;;;;;;1.00;1.00;;;;;19.96;57.97;99160.29;110629;1250;18450;-80
2023/01/15 06:23:39;;;;;;;;;1.00;1.00;;;;;19.98;58.08;99166.65;110642;1250;18909;-79
2023/01/15 06:26:07;;;;;;;;;1.00;1.00;;;;;19.97;58.01;99160.04;110653;1259;20879;-80
2023/01/15 06:28:34;;;;;;;;;1.00;1.00;;;;;19.96;58.00;99163.72;110492;1265;18577;-79
2023/01/15 06:31:01;;;;;;;;;;;;;;;19.97;57.90;99166.61;110415;1266;19854;-80
2023/01/15 06:33:29;;;;;;;;;1.00;1.00;;;;;19.97;58.10;99171.63;110396;1265;19672;-79
2023/01/15 06:35:56;;;;;;;;;1.00;1.00;;;;;19.97;57.89;99170.42;110466;1251;19585;-80
2023/01/15 06:38:24;;;;;;;;;1.00;1.00;;;;;19.97;57.97;99172.92;110483;1265;20167;-79
2023/01/15 06:40:51;;;;;;;;;1.00;1.00;;;;;19.98;57.90;99172.64;110439;1265;21575;-79
2023/01/15 06:48:50;;;;;;;;;1.00;1.00;;;;;19.97;58.04;99164.60;110562;1259;19444;-80
2023/01/15 06:51:19;;;;;;;;;1.00;1.00;;;;;19.96;57.99;99159.63;110628;1250;19335;-80
2023/01/15 06:53:46;;;;;;;;;2.50;1.00;;;;;19.96;58.04;99164.86;110485;1266;20210;-79
2023/01/15 06:56:14;;;;;;;;;1.00;1.00;;;;;19.96;58.04;99157.66;110678;1250;19380;-79
2023/01/15 06:58:41;;;;;;;;;1.00;1.00;;;;;19.96;58.05;99158.00;110606;1250;19750;-80
2023/01/15 07:01:09;;;;;;;;;1.33;1.00;;;;;19.97;58.11;99161.54;110611;1265;18612;-78
2023/01/15 07:03:36;;;;;;;;;1.00;1.00;;;;;19.97;57.90;99152.96;110462;1265;19406;-80
2023/01/15 07:06:04;;;;;;;;;2.00;1.00;;;;;19.97;57.98;99148.55;110419;1265;18541;-81
2023/01/15 07:08:31;;;;;;;;;1.00;1.00;;;;;19.98;57.76;99147.38;110576;1265;18971;-79
2023/01/15 07:10:59;;;;;;;;;1.00;1.00;;;;;19.99;57.91;99140.64;110600;1265;19385;-79
2023/01/15 07:13:26;;;;;;;;;1.00;1.00;;;;;20.05;57.77;99144.19;110539;1250;18500;-80
2023/01/15 07:15:54;;;;;;;;;1.00;1.00;;;;;20.07;57.85;99140.38;110558;1252;19156;-80
2023/01/15 07:18:21;;;;;;;;;1.00;1.00;;;;;20.08;58.08;99143.17;110570;1265;19297;-80
2023/01/15 07:20:49;;;;;;;;;1.00;1.00;;;;;20.06;58.03;99139.34;110643;1265;18731;-80
2023/01/15 07:23:16;;;;;;;;;1.00;1.00;;;;;20.04;58.08;99138.59;110627;1250;20717;-79
2023/01/15 07:25:44;;;;;;;;;1.00;1.00;;;;;20.05;58.17;99131.46;110522;1250;19717;-79
2023/01/15 07:28:11;;;;;;;;;1.00;1.00;;;;;20.03;58.11;99132.00;110548;1265;18319;-80
2023/01/15 07:30:42;;;;;;;;;1.00;1.00;;;;;20.02;58.33;99127.83;110580;1250;18630;-80
2023/01/15 07:33:19;;;;;;;;;1.00;1.00;;;;;20.01;58.21;99131.02;110601;1250;22136;-79
2023/01/15 07:35:56;;;;;;;;;1.00;1.00;;;;;20.01;58.20;99129.00;110215;1265;20887;-79
2023/01/15 07:38:41;;;;;;;;;1.00;1.00;;;;;20.01;58.16;99131.52;110595;1265;19284;-80
2023/01/15 07:49:48;;;;;;;;;17.00;16.00;;;;;20.08;58.22;99125.35;110255;1265;21532;-79
2023/01/15 07:52:16;;;;;;;;;66.00;54.50;;;;;20.09;58.55;99126.48;110604;1265;19177;-79
2023/01/15 07:54:43;;;;;;;;;40.00;36.00;;;;;20.09;58.85;99125.93;110610;1259;20489;-79
2023/01/15 07:57:12;;;;;;;;;51.00;43.50;;;;;20.00;58.50;99122.47;110564;1259;19386;-79
2023/01/15 07:59:40;;;;;;;;;43.00;39.00;;;;;19.97;58.34;99123.90;110416;1252;21980;-78
2023/01/15 08:02:07;;;;;;;;;40.00;30.00;;;;;20.00;58.20;99128.09;110519;1266;19332;-79
2023/01/15 08:04:35;;;;;;;;;28.00;26.00;;;;;20.03;58.31;99128.79;110634;1265;19351;-79
2023/01/15 08:07:02;;;;;;;;;22.00;21.00;;;;;20.04;58.18;99124.73;110606;1251;18768;-78
2023/01/15 08:09:29;;;;;;;;;29.00;24.00;;;;;20.07;58.23;99127.73;110487;1266;18909;-79
2023/01/15 08:17:27;;;;;;;;;17.00;14.00;;;;;20.13;58.53;99126.69;110526;1266;19764;-80
2023/01/15 08:19:55;;;;;;;;;13.50;13.50;;;;;20.13;58.70;99123.21;110532;1265;19342;-80
2023/01/15 08:22:22;;;;;;;;;17.50;13.00;;;;;20.13;58.97;99122.00;110506;1250;23888;-80
2023/01/15 08:24:50;;;;;;;;;17.00;14.00;;;;;20.12;59.00;99119.83;110592;1265;20130;-79
2023/01/15 08:27:17;;;;;;;;;7.50;7.50;;;;;20.11;59.12;99118.79;110467;1265;19365;-79
2023/01/15 08:29:45;;;;;;;;;10.00;10.00;;;;;20.11;59.10;99115.06;110384;1265;18641;-80
2023/01/15 08:32:12;;;;;;;;;10.00;10.00;;;;;20.11;59.16;99124.86;110413;1253;20125;-79
2023/01/15 08:34:40;;;;;;;;;10.00;10.00;;;;;20.11;59.18;99128.48;110244;1265;19274;-79
2023/01/15 08:37:07;;;;;;;;;10.00;8.00;;;;;20.14;59.31;99126.92;110564;1265;18554;-80
2023/01/15 08:39:35;;;;;;;;;10.00;7.00;;;;;20.18;59.29;99121.06;110582;1265;20009;-80
2023/01/15 08:42:02;;;;;;;;;12.00;10.00;;;;;20.13;59.15;99118.15;110477;1265;19517;-80
2023/01/15 08:44:30;;;;;;;;;6.00;4.00;;;;;20.13;59.18;99122.42;110456;1266;19914;-79
2023/01/15 08:46:57;;;;;;;;;4.00;4.00;;;;;20.12;59.23;99123.60;110576;1266;22873;-79
2023/01/15 08:49:25;;;;;;;;;5.33;4.67;;;;;20.11;59.46;99122.30;110922;1265;19379;-81
2023/01/15 08:51:52;;;;;;;;;6.50;6.00;;;;;20.12;59.55;99125.35;110986;1265;19784;-83
2023/01/15 08:54:20;;;;;;;;;6.00;6.00;;;;;20.13;59.61;99124.34;111038;1266;23274;-81
2023/01/15 08:56:48;;;;;;;;;6.00;6.00;;;;;20.13;59.62;99126.48;110922;1251;20923;-80
2023/01/15 08:59:20;;;;;;;;;6.00;4.00;;;;;20.13;59.62;99123.64;110916;1266;18288;-80
2023/01/15 09:01:47;;;;;;;;;4.00;4.00;;;;;20.13;59.71;99125.23;110640;1266;20703;-80
2023/01/15 09:04:15;;;;;;;;;4.00;4.00;;;;;20.13;59.58;99118.95;110641;1259;20823;-78
2023/01/15 09:06:42;;;;;;;;;2.00;2.00;;;;;20.12;59.57;99115.56;110710;1250;19979;-79
2023/01/15 09:09:12;;;;;;;;;5.00;4.00;;;;;20.13;59.78;99120.02;110667;1265;20110;-78
2023/01/15 09:11:40;;;;;;;;;6.00;6.00;;;;;20.11;59.78;99118.95;110691;1258;19714;-80
2023/01/15 09:14:07;;;;;;;;;2.00;2.00;;;;;20.12;59.60;99119.41;110652;1265;18938;-81
2023/01/15 09:16:35;;;;;;;;;2.00;2.00;;;;;20.13;60.02;99115.43;110657;1261;18865;-79
2023/01/15 09:19:02;;;;;;;;;2.00;2.00;;;;;20.14;59.73;99108.98;110501;1266;19372;-81
2023/01/15 09:21:30;;;;;;;;;1.00;1.00;;;;;20.15;59.73;99117.72;110529;1266;19981;-81
2023/01/15 09:23:57;;;;;;;;;4.00;4.00;;;;;20.15;59.97;99110.66;110530;1251;26130;-80
2023/01/15 09:26:25;;;;;;;;;4.00;3.00;;;;;20.16;59.86;99116.09;110685;1250;20027;-80
2023/01/15 09:28:52;;;;;;;;;4.00;4.00;;;;;20.15;59.82;99112.61;111039;1265;18845;-80
2023/01/15 09:31:20;;;;;;;;;5.00;3.00;;;;;20.14;59.91;99105.39;111095;1258;18671;-80
2023/01/15 09:33:47;;;;;;;;;3.00;3.00;;;;;20.13;60.06;99103.09;111198;1265;21242;-80
2023/01/15 09:36:15;;;;;;;;;3.00;2.33;;;;;20.13;60.05;99093.92;111154;1253;22108;-80
2023/01/15 09:38:42;;;;;;;;;1.00;1.00;;;;;20.13;60.18;99096.05;110967;1259;18963;-81
2023/01/15 09:42:04;;;;;;;;;3.67;3.00;;;;;20.12;60.19;99094.94;110992;1267;19600;-80
2023/01/15 09:44:02;;;;;;;;;1.00;1.00;;;;;20.12;59.95;99094.39;110941;1267;18640;-81
2023/01/15 09:46:30;;;;;;;;;1.50;1.50;;;;;20.11;60.09;99094.48;110970;1251;21046;-80
2023/01/15 09:49:00;;;;;;;;;2.00;2.00;;;;;20.12;60.19;99090.84;110443;1251;21041;-80
2023/01/15 09:51:28;;;;;;;;;5.00;4.67;;;;;20.05;59.94;99090.84;110330;1259;18536;-80
2023/01/15 09:53:55;;;;;;;;;4.00;2.00;;;;;19.98;59.28;99093.90;110412;1251;18608;-81
2023/01/15 09:56:23;;;;;;;;;6.00;6.00;;;;;19.99;59.36;99085.40;110296;1267;19873;-81
2023/01/15 09:58:51;;;;;;;;;2.00;2.00;;;;;20.07;59.39;99086.90;110344;1267;21603;-81
2023/01/15 10:01:18;;;;;;;;;4.00;3.33;;;;;20.12;59.37;99084.60;110321;1267;18956;-81
2023/01/15 10:03:46;;;;;;;;;4.00;2.00;;;;;20.14;59.34;99088.68;110306;1253;19746;-80
2023/01/15 10:06:13;;;;;;;;;3.67;2.00;;;;;20.15;59.31;99091.23;110364;1267;21512;-80
2023/01/15 10:08:41;;;;;;;;;2.00;2.00;;;;;20.15;59.56;99087.00;110442;1252;18674;-81
2023/01/15 10:11:08;;;;;;;;;3.00;2.00;;;;;20.15;59.64;99085.96;110503;1252;21044;-80
2023/01/15 10:13:36;;;;;;;;;4.00;4.00;;;;;20.14;59.78;99080.65;110408;1260;18392;-80
2023/01/15 10:16:03;;;;;;;;;1.50;1.50;;;;;20.15;59.74;99082.70;110476;1267;18888;-81
2023/01/15 10:18:31;;;;;;;;;97.50;70.50;;;;;20.20;59.99;99077.64;110363;1266;21621;-81
2023/01/15 10:20:59;;;;;;;;;95.50;71.50;;;;;20.27;60.05;99083.39;110453;1265;18758;-82
2023/01/15 10:23:26;;;;;;;;;85.00;60.00;;;;;20.27;60.35;99079.48;110524;1251;20417;-79
2023/01/15 10:25:54;;;;;;;;;70.00;51.00;;;;;20.31;60.80;99078.90;110487;1259;21637;-81
2023/01/15 10:28:21;;;;;;;;;65.50;43.50;;;;;20.34;61.12;99068.42;110466;1267;20128;-80
2023/01/15 10:30:49;;;;;;;;;42.50;34.00;;;;;20.37;61.50;99074.06;110474;1251;25673;-80
2023/01/15 10:33:16;;;;;;;;;35.50;27.50;;;;;20.44;61.96;99082.42;110490;1267;20803;-80
2023/01/15 10:35:44;;;;;;;;;30.00;27.00;;;;;20.46;62.29;99083.40;110474;1266;19039;-80
2023/01/15 10:38:13;;;;;;;;;25.00;25.00;;;;;20.46;62.27;99080.94;110471;1251;18743;-80
2023/01/15 10:40:41;;;;;;;;;25.00;19.50;;;;;20.46;62.23;99082.22;110471;1266;19569;-80
2023/01/15 10:43:08;;;;;;;;;21.00;19.00;;;;;20.45;62.38;99086.61;110473;1251;22092;-79
2023/01/15 10:45:36;;;;;;;;;21.00;16.33;;;;;20.47;62.61;99082.64;110494;1253;19371;-80
2023/01/15 10:48:04;;;;;;;;;19.00;16.00;;;;;20.47;62.76;99089.77;110526;1262;19729;-81
2023/01/15 10:50:31;;;;;;;;;11.33;10.00;;;;;20.51;62.77;99087.47;110512;1251;18823;-80
2023/01/15 10:53:01;;;;;;;;;19.50;16.00;;;;;20.52;62.62;99085.34;110348;1266;21654;-81
2023/01/15 10:55:29;;;;;;;;;13.00;11.00;;;;;20.54;62.72;99089.61;110425;1257;22281;-82
2023/01/15 10:57:59;;;;;;;;;20.00;16.00;;;;;20.53;62.42;99093.46;110461;1260;22310;-82
2023/01/15 11:00:27;;;;;;;;;16.00;13.00;;;;;20.53;62.84;99087.14;110460;1267;18815;-81
2023/01/15 11:02:56;;;;;;;;;22.00;16.00;;;;;20.54;62.69;99092.95;110435;1266;19523;-82
2023/01/15 11:05:24;;;;;;;;;17.00;14.00;;;;;20.59;62.72;99090.27;110521;1253;22176;-82
2023/01/15 11:07:52;;;;;;;;;12.50;10.50;;;;;20.59;62.48;99093.02;110425;1267;19335;-82
2023/01/15 11:10:20;;;;;;;;;10.00;8.00;;;;;20.61;62.80;99087.90;110444;1253;19692;-81
2023/01/15 11:21:03;;;;;;;;;7.00;5.00;;;;;20.59;63.15;99153.74;110507;1266;18542;-80
2023/01/15 11:23:31;;;;;;;;;8.00;7.50;;;;;20.56;62.90;99161.16;110503;1267;18647;-81
2023/01/15 11:25:58;;;;;;;;;8.00;7.00;;;;;20.56;62.91;99166.69;110447;1259;19410;-80
2023/01/15 11:28:26;;;;;;;;;8.00;7.00;;;;;20.55;62.74;99171.71;110456;1267;19104;-80
2023/01/15 11:30:54;;;;;;;;;6.50;5.00;;;;;20.54;62.72;99178.55;110405;1253;21474;-81
2023/01/15 11:33:21;;;;;;;;;8.00;7.00;;;;;20.52;62.52;99170.89;110056;1260;20915;-81
2023/01/15 11:35:49;;;;;;;;;7.00;7.00;;;;;20.55;62.83;99167.90;110413;1251;20453;-80
2023/01/15 11:38:16;;;;;;;;;5.00;5.00;;;;;20.56;62.71;99170.33;110310;1267;19090;-80
2023/01/15 11:40:44;;;;;;;;;9.00;6.00;;;;;20.54;62.71;99175.78;110364;1267;19388;-81
2023/01/15 11:51:27;;;;;;;;;7.00;4.50;;;;;20.52;62.66;99181.82;110150;1253;19917;-79
2023/01/15 11:53:54;;;;;;;;;4.00;4.00;;;;;20.52;62.66;99188.52;110343;1252;18832;-80
2023/01/15 11:56:22;;;;;;;;;5.00;4.00;;;;;20.55;62.66;99193.20;110490;1267;19825;-80
2023/01/15 11:58:49;;;;;;;;;5.00;5.00;;;;;20.59;62.73;99199.38;110464;1253;18473;-81
2023/01/15 12:01:17;;;;;;;;;4.00;4.00;;;;;20.60;62.91;99205.50;110452;1267;18976;-79
2023/01/15 12:03:45;;;;;;;;;5.67;5.00;;;;;20.56;62.88;99201.81;110320;1252;20918;-81
2023/01/15 12:06:15;;;;;;;;;3.00;3.00;;;;;20.52;62.83;99198.85;110260;1252;18679;-82
2023/01/15 12:08:43;;;;;;;;;5.00;5.00;;;;;20.51;62.56;99200.86;110320;1267;19031;-78
2023/01/15 12:11:15;;;;;;;;;4.00;4.00;;;;;20.50;62.52;99203.12;110471;1253;19419;-81